SWR64E LSZH-KMIA
Flight info
| Callsign | SWR64E |
|---|---|
| Flight time | N/A |
| Altitude | 34000 |
| Route | VEBIT T51 LASUN T14 LUMEL T10 TORPA DCT REKLA DCT RLP UL613 ROTSI UM164 TRO UM729 RESMI UN491 LGL UN502 JSY DCT LIZAD DCT LULOX/M083F340 DCT GIPER DCT ELSOX DCT DINIM/M083F350 NATG NICSO/M082F360 DCT LOMPI M202 KINER/M082F380 M202 ONGOT DCT PADRK M203 SNAGY/N0471F380 BNFSH2 |
| Aircraft | B77W/H-SDE2E3FGHIJ4J5M1P2RWXY/LB1D1G1 |
Departure
| Time | 2026-05-01 11:14 |
|---|---|
| Airport | Zürich Airport (LSZH) |
Arrival
| Time | N/A |
|---|---|
| Airport | Miami International Airport (KMIA) |
| Time | Latitude | Longitude | Altitude | Speed | Heading |
|---|---|---|---|---|---|
| 2026-05-01 10:28 | 47.46141 | 8.55871 | 1409 ft | 0 kts | 276° |
| 2026-05-01 10:48 | 47.46140 | 8.55886 | 1416 ft | 3 kts | 276° |
| 2026-05-01 10:48 | 47.46138 | 8.55916 | 1410 ft | 3 kts | 276° |
| 2026-05-01 10:49 | 47.46135 | 8.55945 | 1412 ft | 3 kts | 276° |
| 2026-05-01 10:49 | 47.46133 | 8.55972 | 1413 ft | 3 kts | 300° |
| 2026-05-01 10:49 | 47.46121 | 8.55989 | 1417 ft | 3 kts | 349° |
| 2026-05-01 10:49 | 47.46103 | 8.55991 | 1412 ft | 2 kts | 5° |
| 2026-05-01 10:50 | 47.46091 | 8.55989 | 1412 ft | 3 kts | 6° |
| 2026-05-01 10:50 | 47.46071 | 8.55986 | 1414 ft | 3 kts | 6° |
| 2026-05-01 10:50 | 47.46059 | 8.55984 | 1412 ft | 1 kts | 6° |
| 2026-05-01 10:50 | 47.46058 | 8.55984 | 1412 ft | 1 kts | 6° |
| 2026-05-01 10:54 | 47.46072 | 8.55986 | 1416 ft | 4 kts | 3° |
| 2026-05-01 10:54 | 47.46122 | 8.55993 | 1411 ft | 10 kts | 0° |
| 2026-05-01 10:55 | 47.46190 | 8.55998 | 1417 ft | 10 kts | 349° |
| 2026-05-01 10:55 | 47.46225 | 8.55911 | 1413 ft | 11 kts | 278° |
| 2026-05-01 10:55 | 47.46234 | 8.55782 | 1406 ft | 9 kts | 270° |
| 2026-05-01 10:55 | 47.46235 | 8.55733 | 1408 ft | 6 kts | 284° |
| 2026-05-01 10:56 | 47.46249 | 8.55610 | 1407 ft | 18 kts | 276° |
| 2026-05-01 10:56 | 47.46263 | 8.55383 | 1404 ft | 23 kts | 276° |
| 2026-05-01 10:56 | 47.46280 | 8.55151 | 1401 ft | 23 kts | 277° |
| 2026-05-01 10:56 | 47.46297 | 8.54917 | 1400 ft | 23 kts | 276° |
| 2026-05-01 10:57 | 47.46307 | 8.54789 | 1397 ft | 10 kts | 282° |
| 2026-05-01 10:57 | 47.46358 | 8.54710 | 1386 ft | 12 kts | 331° |
| 2026-05-01 10:57 | 47.46441 | 8.54650 | 1401 ft | 16 kts | 334° |
| 2026-05-01 10:57 | 47.46579 | 8.54557 | 1402 ft | 25 kts | 335° |
| 2026-05-01 10:58 | 47.46608 | 8.54536 | 1404 ft | 1 kts | 335° |
| 2026-05-01 10:58 | 47.46640 | 8.54514 | 1403 ft | 13 kts | 336° |
| 2026-05-01 10:58 | 47.46735 | 8.54470 | 1386 ft | 11 kts | 17° |
| 2026-05-01 10:58 | 47.46754 | 8.54566 | 1403 ft | 11 kts | 125° |
| 2026-05-01 10:59 | 47.46689 | 8.54624 | 1403 ft | 0 kts | 154° |
| 2026-05-01 11:06 | 47.46666 | 8.54640 | 1407 ft | 10 kts | 154° |
| 2026-05-01 11:07 | 47.46524 | 8.54738 | 1404 ft | 14 kts | 155° |
| 2026-05-01 11:07 | 47.46418 | 8.54811 | 1400 ft | 18 kts | 154° |
| 2026-05-01 11:07 | 47.46314 | 8.54827 | 1402 ft | 14 kts | 230° |
| 2026-05-01 11:07 | 47.46352 | 8.54714 | 1386 ft | 15 kts | 330° |
| 2026-05-01 11:08 | 47.46442 | 8.54650 | 1401 ft | 15 kts | 335° |
| 2026-05-01 11:08 | 47.46544 | 8.54579 | 1402 ft | 18 kts | 335° |
| 2026-05-01 11:08 | 47.46847 | 8.54385 | 1383 ft | 26 kts | 336° |
| 2026-05-01 11:09 | 47.47011 | 8.54270 | 1386 ft | 26 kts | 337° |
| 2026-05-01 11:09 | 47.47177 | 8.54159 | 1402 ft | 26 kts | 334° |
| 2026-05-01 11:09 | 47.47342 | 8.54044 | 1402 ft | 26 kts | 335° |
| 2026-05-01 11:10 | 47.47669 | 8.53821 | 1411 ft | 21 kts | 334° |
| 2026-05-01 11:10 | 47.47671 | 8.53676 | 1410 ft | 18 kts | 212° |
| 2026-05-01 11:10 | 47.47551 | 8.53617 | 1408 ft | 18 kts | 180° |
| 2026-05-01 11:10 | 47.47497 | 8.53643 | 1406 ft | 0 kts | 154° |
| 2026-05-01 11:13 | 47.47480 | 8.53654 | 1409 ft | 12 kts | 154° |
| 2026-05-01 11:13 | 47.47192 | 8.53855 | 1386 ft | 87 kts | 155° |
| 2026-05-01 11:13 | 47.46396 | 8.54404 | 1385 ft | 163 kts | 155° |
| 2026-05-01 11:14 | 47.45194 | 8.55233 | 1524 ft | 205 kts | 155° |
| 2026-05-01 11:14 | 47.43850 | 8.56129 | 2093 ft | 218 kts | 156° |
| 2026-05-01 11:14 | 47.42590 | 8.57303 | 2887 ft | 217 kts | 128° |
| 2026-05-01 11:14 | 47.42000 | 8.59348 | 3586 ft | 220 kts | 94° |
| 2026-05-01 11:15 | 47.42390 | 8.61505 | 4070 ft | 227 kts | 52° |
| 2026-05-01 11:15 | 47.43686 | 8.62873 | 4473 ft | 243 kts | 16° |
| 2026-05-01 11:15 | 47.45431 | 8.63291 | 4774 ft | 260 kts | 5° |
| 2026-05-01 11:15 | 47.47255 | 8.63668 | 5294 ft | 268 kts | 1° |
| 2026-05-01 11:16 | 47.49077 | 8.63121 | 5802 ft | 275 kts | 328° |
| 2026-05-01 11:16 | 47.50387 | 8.61083 | 6481 ft | 277 kts | 292° |
| 2026-05-01 11:16 | 47.50715 | 8.59275 | 6973 ft | 277 kts | 270° |
| 2026-05-01 11:16 | 47.50363 | 8.56506 | 7650 ft | 275 kts | 248° |
| 2026-05-01 11:17 | 47.49663 | 8.53821 | 8018 ft | 283 kts | 243° |
| 2026-05-01 11:17 | 47.47903 | 8.51074 | 7974 ft | 281 kts | 205° |
| 2026-05-01 11:17 | 47.46195 | 8.49707 | 8281 ft | 280 kts | 216° |
| 2026-05-01 11:17 | 47.44716 | 8.47800 | 9027 ft | 285 kts | 225° |
| 2026-05-01 11:18 | 47.43829 | 8.46305 | 9551 ft | 289 kts | 230° |